Paige, TX (78659)

11:11 PM CST on February 09, 2016 (GMT -0600)
Giddings | | Change Station
CLOSE
Current Station
Airport
Location: Giddings,
Elevation: 486 ft
Nearby Weather Stations

Elev 486 ft 30.17 °N, 96.98 °W | Updated 16 minutes ago

Clear
Clear
47 °F
Feels Like 47 °F
N
0
Wind Variable Wind from North

Today
High -- | Low -- °F
--% Chance of Precip.
Yesterday
High -- | Low -- °F
Precip. -- in
Pressure 30.35 in
Visibility 10.0 miles
Clouds Clear
Dew Point 34 °F
Humidity 62%
Rainfall 0.00 in
Snow Depth Not available.
7:13 AM 6:11 PM
Waxing Crescent, 3% visible
METAR KGYB 100455Z AUTO 00000KT 10SM CLR 08/01 A3035 RMK AO2 T00820012
Pressure 30.35 in
Visibility 10.0 miles
Clouds Clear
Dew Point 34 °F
Humidity 62%
Rainfall 0.00 in
Snow Depth Not available.
7:13 AM 6:11 PM
Waxing Crescent, 3% visible
METAR KGYB 100455Z AUTO 00000KT 10SM CLR 08/01 A3035 RMK AO2 T00820012

10-Day Weather Forecast

Almanac

Astronomy

Feb. 09, 2016 Rise Set
Actual Time
Civil Twilight
Nautical Twilight
Astronomical Twilight
Moon
Length of Visible Light
Length of Day
Tomorrow will be .
, % of the Moon is Illuminated

Today's Extremes

State Highs State Lows

Community

WunderPhotos

Upload Photos

1,891,818 photos uploaded!

WunderBlog® & News

Nearby

Air Quality

  Air Quality AQ Index Pollutant
Not available.

Snow Depth

Station Depth Elevation

Earthquake Activity

City Distance Mag. Time & Date
Minimum magnitude displayed is 2.5.

Coastal Water Temperatures

Place Temperature

Stations

Nearby Weather Stations

Station Location Temp. Windchill Dew Point Humidity Wind Precip. Elev Updated Type
                   

Watches & Warnings

There are currently no watches in effect.